Time;durP1;ratioP1;P1;durP2;ratioP2;P2;SDS_P1;SDS_P2;PMS_P1;PMS_P2;Temp;Humidity;BMP_temperature;BMP_pressure;BME280_temperature;BME280_humidity;BME280_pressure;Samples;Min_cycle;Max_cycle;Signal;HPM_P1;HPM_P2
2022/12/11 00:01:46;;;;;;;;;;;2.60;99.90;;;;;;4959341;28;20475;-76
2022/12/11 00:04:14;;;;;;;;;;;2.60;99.90;;;;;;4975340;28;19926;-75
2022/12/11 00:06:42;;;;;;;;;;;2.60;99.90;;;;;;4972287;28;19933;-76
2022/12/11 00:09:09;;;;;;;;;;;2.60;99.90;;;;;;4989153;28;19926;-76
2022/12/11 00:11:36;;;;;;;;;;;2.60;99.90;;;;;;4987584;28;20004;-75
2022/12/11 00:14:03;;;;;;;;;;;2.60;99.90;;;;;;4974637;28;19972;-75
2022/12/11 00:16:31;;;;;;;;;;;2.60;99.90;;;;;;4992347;28;19953;-75
2022/12/11 00:18:58;;;;;;;;;;;2.60;99.90;;;;;;4970885;28;20183;-76
2022/12/11 00:21:25;;;;;;;;;;;2.60;99.90;;;;;;4973072;28;19938;-76
2022/12/11 00:23:53;;;;;;;;;;;2.50;99.90;;;;;;4980480;28;20463;-75
2022/12/11 00:26:20;;;;;;;;;;;2.50;99.90;;;;;;4962318;28;19934;-76
2022/12/11 00:28:48;;;;;;;;;;;2.50;99.90;;;;;;4971075;28;19954;-76
2022/12/11 00:31:17;;;;;;;;;;;2.50;99.90;;;;;;4955487;28;19930;-76
2022/12/11 00:33:47;;;;;;;;;;;2.60;99.90;;;;;;4972583;28;19934;-76
2022/12/11 00:36:16;;;;;;;;;;;2.60;99.90;;;;;;4955227;28;19949;-75
2022/12/11 00:38:46;;;;;;;;;;;2.60;99.90;;;;;;4955162;28;20170;-74
2022/12/11 00:41:18;;;;;;;;;;;2.50;99.90;;;;;;4960778;28;20376;-76
2022/12/11 00:43:45;;;;;;;;;;;1.30;99.90;;;;;;4973967;28;19948;-76
2022/12/11 00:46:12;;;;;;;;;;;2.50;99.90;;;;;;4982032;28;20299;-75
2022/12/11 00:48:39;;;;;;;;;;;2.50;99.90;;;;;;4955399;28;20426;-75
2022/12/11 00:51:06;;;;;;;;;;;2.40;99.90;;;;;;4972360;28;19965;-75
2022/12/11 00:53:33;;;;;;;;;;;2.40;99.90;;;;;;4955020;28;19934;-75
2022/12/11 00:56:00;;;;;;;;;;;2.40;99.90;;;;;;4955060;28;20029;-75
2022/12/11 00:58:29;;;;;;;;;;;2.40;99.90;;;;;;4953798;28;19938;-75
2022/12/11 01:01:04;;;;;;;;;;;2.40;99.90;;;;;;4958031;28;19965;-76
2022/12/11 01:03:31;;;;;;;;;;;2.40;99.90;;;;;;4964686;28;19936;-75
2022/12/11 01:05:59;;;;;;;;;;;2.50;99.90;;;;;;4954168;28;19930;-76
2022/12/11 01:08:26;;;;;;;;;;;2.50;99.90;;;;;;4960627;28;19930;-77
2022/12/11 01:10:59;;;;;;;;;;;2.50;99.90;;;;;;4974904;28;20431;-75
2022/12/11 01:13:26;;;;;;;;;;;2.50;99.90;;;;;;4954539;28;20351;-75
2022/12/11 01:15:54;;;;;;;;;;;2.60;99.90;;;;;;4958783;28;19930;-75
2022/12/11 01:18:21;;;;;;;;;;;2.60;99.90;;;;;;4972778;28;19930;-76
2022/12/11 01:20:51;;;;;;;;;;;2.60;99.90;;;;;;4988284;28;19937;-75
2022/12/11 01:23:21;;;;;;;;;;;2.60;99.90;;;;;;4975648;28;20021;-77
2022/12/11 01:25:49;;;;;;;;;;;2.50;99.90;;;;;;4949568;28;20461;-77
2022/12/11 01:28:15;;;;;;;;;;;2.50;99.90;;;;;;4966408;28;19930;-76
2022/12/11 01:30:43;;;;;;;;;;;2.50;99.90;;;;;;4958054;28;19937;-76
2022/12/11 01:33:11;;;;;;;;;;;2.50;99.90;;;;;;4959292;28;20024;-75
2022/12/11 01:35:49;;;;;;;;;;;2.50;99.90;;;;;;4970135;28;20647;-76
2022/12/11 01:38:16;;;;;;;;;;;2.10;99.90;;;;;;4962443;28;20364;-76
2022/12/11 01:40:46;;;;;;;;;;;2.50;99.90;;;;;;4966225;28;20411;-75
2022/12/11 01:43:13;;;;;;;;;;;2.60;99.90;;;;;;4953623;28;19960;-76
2022/12/11 01:45:40;;;;;;;;;;;2.60;99.90;;;;;;4959344;28;20045;-75
2022/12/11 01:48:10;;;;;;;;;;;2.60;99.90;;;;;;4952207;28;20009;-76
2022/12/11 01:50:41;;;;;;;;;;;2.60;99.90;;;;;;4955466;28;19930;-76
2022/12/11 01:53:09;;;;;;;;;;;2.60;99.90;;;;;;4972404;28;19925;-76
2022/12/11 01:55:54;;;;;;;;;;;2.60;99.90;;;;;;4956288;28;19930;-75
2022/12/11 01:58:32;;;;;;;;;;;2.60;99.90;;;;;;4987982;28;19930;-76
2022/12/11 02:01:01;;;;;;;;;;;2.50;99.90;;;;;;4961761;28;19934;-75
2022/12/11 02:03:28;;;;;;;;;;;2.50;99.90;;;;;;4962292;28;20442;-76
2022/12/11 02:06:00;;;;;;;;;;;2.50;99.90;;;;;;4966986;28;19933;-75
2022/12/11 02:08:27;;;;;;;;;;;2.50;99.90;;;;;;4954112;28;19930;-75
2022/12/11 02:11:01;;;;;;;;;;;2.60;99.90;;;;;;4970898;28;19966;-75
2022/12/11 02:13:31;;;;;;;;;;;2.60;99.90;;;;;;4961973;28;19941;-76
2022/12/11 02:16:05;;;;;;;;;;;2.60;99.90;;;;;;4963134;28;19969;-76
2022/12/11 02:18:35;;;;;;;;;;;2.60;99.90;;;;;;4954293;28;20416;-77
2022/12/11 02:21:08;;;;;;;;;;;2.60;99.90;;;;;;4949031;28;19930;-76
2022/12/11 02:24:00;;;;;;;;;;;2.60;99.90;;;;;;4960495;28;20276;-77
2022/12/11 02:26:45;;;;;;;;;;;2.60;99.90;;;;;;4973429;28;19930;-77
2022/12/11 02:29:16;;;;;;;;;;;2.70;99.90;;;;;;4956182;28;19926;-76
2022/12/11 02:31:45;;;;;;;;;;;2.70;99.90;;;;;;4962375;28;19931;-76
2022/12/11 02:34:16;;;;;;;;;;;2.70;99.90;;;;;;4979027;28;19929;-75
2022/12/11 02:36:45;;;;;;;;;;;2.70;99.90;;;;;;4977747;28;19938;-77
2022/12/11 02:39:14;;;;;;;;;;;2.70;99.90;;;;;;4978693;28;19926;-76
2022/12/11 02:41:43;;;;;;;;;;;2.70;99.90;;;;;;4955989;28;19972;-75
2022/12/11 02:44:11;;;;;;;;;;;4.40;99.90;;;;;;4958220;28;19926;-76
2022/12/11 02:46:40;;;;;;;;;;;2.70;99.90;;;;;;4971441;28;19937;-76
2022/12/11 02:49:07;;;;;;;;;;;2.80;99.90;;;;;;4972711;28;19930;-75
2022/12/11 02:51:36;;;;;;;;;;;2.80;99.90;;;;;;4959082;28;19926;-75
2022/12/11 02:54:04;;;;;;;;;;;2.80;99.90;;;;;;4958502;28;19937;-75
2022/12/11 02:56:34;;;;;;;;;;;2.80;99.90;;;;;;4956713;28;19941;-74
2022/12/11 02:59:03;;;;;;;;;;;2.80;99.90;;;;;;4974430;28;19949;-75
2022/12/11 03:01:30;;;;;;;;;;;2.80;99.90;;;;;;4979828;28;19929;-76
2022/12/11 03:04:04;;;;;;;;;;;2.80;99.90;;;;;;4963189;28;20308;-75
2022/12/11 03:06:32;;;;;;;;;;;2.80;99.90;;;;;;4973529;28;19930;-76
2022/12/11 03:08:59;;;;;;;;;;;2.80;99.90;;;;;;4959930;28;19934;-76
2022/12/11 03:11:26;;;;;;;;;;;3.00;99.90;;;;;;4968898;28;19933;-76
2022/12/11 03:13:54;;;;;;;;;;;2.80;99.90;;;;;;4972307;28;20020;-76
2022/12/11 03:16:24;;;;;;;;;;;2.80;99.90;;;;;;4974754;28;19930;-77
2022/12/11 03:18:58;;;;;;;;;;;2.90;99.90;;;;;;4965545;28;20419;-76
2022/12/11 03:21:30;;;;;;;;;;;2.80;99.90;;;;;;4959011;28;19968;-75
2022/12/11 03:24:02;;;;;;;;;;;2.90;99.90;;;;;;4962832;28;19930;-77
2022/12/11 03:26:31;;;;;;;;;;;2.90;99.90;;;;;;4953866;28;20356;-77
2022/12/11 03:29:00;;;;;;;;;;;2.90;99.90;;;;;;4955706;28;20433;-77
2022/12/11 03:31:30;;;;;;;;;;;2.90;99.90;;;;;;4954408;28;19942;-76
2022/12/11 03:34:01;;;;;;;;;;;2.90;99.90;;;;;;4976187;28;20391;-75
2022/12/11 03:36:36;;;;;;;;;;;2.90;99.90;;;;;;4971899;28;19930;-75
2022/12/11 03:39:07;;;;;;;;;;;2.80;99.90;;;;;;4958009;28;20008;-76
2022/12/11 03:41:35;;;;;;;;;;;2.90;99.90;;;;;;4966095;28;20015;-75
2022/12/11 03:44:04;;;;;;;;;;;2.90;99.90;;;;;;4978292;28;19981;-75
2022/12/11 03:46:34;;;;;;;;;;;2.90;99.90;;;;;;4996217;28;20046;-75
2022/12/11 03:49:02;;;;;;;;;;;2.90;99.90;;;;;;4992975;28;19926;-75
2022/12/11 03:51:31;;;;;;;;;;;2.80;99.90;;;;;;4987905;28;19933;-76
2022/12/11 03:54:00;;;;;;;;;;;2.90;99.90;;;;;;4977925;28;19926;-76
2022/12/11 03:56:29;;;;;;;;;;;2.90;99.90;;;;;;4984581;28;19926;-76
2022/12/11 03:58:56;;;;;;;;;;;2.90;99.90;;;;;;4970714;28;19969;-76
2022/12/11 04:01:24;;;;;;;;;;;2.90;99.90;;;;;;4954265;28;19952;-76
2022/12/11 04:03:51;;;;;;;;;;;2.90;99.90;;;;;;4961435;28;19938;-76
2022/12/11 04:06:19;;;;;;;;;;;2.80;99.90;;;;;;4961441;28;19930;-76
2022/12/11 04:08:46;;;;;;;;;;;2.80;99.90;;;;;;4971205;28;19938;-76
2022/12/11 04:16:43;;;;;;;;;;;2.80;99.90;;;;;;4956056;28;20370;-75
2022/12/11 04:24:39;;;;;;;;;;;2.80;99.90;;;;;;4972027;28;19930;-75
2022/12/11 04:27:07;;;;;;;;;;;2.80;99.90;;;;;;4971851;28;19930;-76
2022/12/11 04:29:34;;;;;;;;;;;2.80;99.90;;;;;;4956760;28;19926;-76
2022/12/11 04:32:01;;;;;;;;;;;2.80;99.90;;;;;;4957835;28;20311;-76
2022/12/11 04:34:31;;;;;;;;;;;2.80;99.90;;;;;;4955309;28;19926;-76
2022/12/11 04:36:58;;;;;;;;;;;2.80;99.90;;;;;;4954133;28;19926;-76
2022/12/11 04:39:25;;;;;;;;;;;2.80;99.90;;;;;;4970333;28;20459;-76
2022/12/11 04:41:52;;;;;;;;;;;2.80;99.90;;;;;;4977834;28;19941;-76
2022/12/11 04:44:21;;;;;;;;;;;2.80;99.90;;;;;;4971999;28;20013;-76
2022/12/11 04:46:48;;;;;;;;;;;2.80;99.90;;;;;;4971067;28;20422;-76
2022/12/11 04:49:16;;;;;;;;;;;2.80;99.90;;;;;;4957828;28;19930;-76
2022/12/11 04:51:43;;;;;;;;;;;2.80;99.90;;;;;;4952845;28;20406;-77
2022/12/11 04:54:10;;;;;;;;;;;2.80;99.90;;;;;;4954171;28;19937;-76
2022/12/11 04:56:37;;;;;;;;;;;2.80;99.90;;;;;;4953652;28;19930;-76
2022/12/11 04:59:04;;;;;;;;;;;2.90;99.90;;;;;;4974853;28;19926;-76
2022/12/11 05:01:32;;;;;;;;;;;2.90;99.90;;;;;;4953194;28;19937;-76
2022/12/11 05:03:59;;;;;;;;;;;2.90;99.90;;;;;;4953933;28;19940;-76
2022/12/11 05:06:26;;;;;;;;;;;2.90;99.90;;;;;;4953186;28;20016;-76
2022/12/11 05:08:53;;;;;;;;;;;2.90;99.90;;;;;;4954064;28;19930;-76
2022/12/11 05:11:20;;;;;;;;;;;2.90;99.90;;;;;;4951996;28;19966;-77
2022/12/11 05:13:47;;;;;;;;;;;2.90;99.90;;;;;;4977357;28;20406;-76
2022/12/11 05:16:15;;;;;;;;;;;2.80;99.90;;;;;;4976090;28;19934;-76
2022/12/11 05:18:43;;;;;;;;;;;2.80;99.90;;;;;;4954782;28;19926;-76
2022/12/11 05:21:13;;;;;;;;;;;2.70;99.90;;;;;;4972558;28;19937;-75
2022/12/11 05:23:40;;;;;;;;;;;2.70;99.90;;;;;;4963643;28;19988;-76
2022/12/11 05:26:08;;;;;;;;;;;2.80;99.90;;;;;;4972376;28;20454;-75
2022/12/11 05:28:36;;;;;;;;;;;2.80;99.90;;;;;;4954073;28;19930;-75
2022/12/11 05:31:04;;;;;;;;;;;2.70;99.90;;;;;;4953816;28;19930;-74
2022/12/11 05:33:33;;;;;;;;;;;2.80;99.90;;;;;;4967805;28;19930;-74
2022/12/11 05:36:01;;;;;;;;;;;2.80;99.90;;;;;;4980848;28;19940;-74
2022/12/11 05:38:29;;;;;;;;;;;2.80;99.90;;;;;;4959319;28;19925;-75
2022/12/11 05:40:57;;;;;;;;;;;2.80;99.90;;;;;;4952675;28;19938;-75
2022/12/11 05:43:23;;;;;;;;;;;2.80;99.90;;;;;;4951707;28;19936;-75
2022/12/11 05:45:50;;;;;;;;;;;2.80;99.90;;;;;;4952216;28;19938;-74
2022/12/11 05:48:19;;;;;;;;;;;2.90;99.90;;;;;;4951692;28;20371;-74
2022/12/11 05:50:56;;;;;;;;;;;2.90;99.90;;;;;;4972586;28;19953;-74
2022/12/11 05:53:25;;;;;;;;;;;2.90;99.90;;;;;;4967173;28;20395;-75
2022/12/11 05:55:51;;;;;;;;;;;2.90;99.90;;;;;;4956019;28;20394;-74
2022/12/11 05:58:18;;;;;;;;;;;2.90;99.90;;;;;;4952966;28;19930;-73
2022/12/11 06:00:45;;;;;;;;;;;2.90;99.90;;;;;;4953976;28;20022;-75
2022/12/11 06:03:12;;;;;;;;;;;2.90;99.90;;;;;;4952057;28;20167;-75
2022/12/11 06:05:39;;;;;;;;;;;2.90;99.90;;;;;;4952645;28;20392;-75
2022/12/11 06:08:06;;;;;;;;;;;2.90;99.90;;;;;;4952964;28;20422;-75
2022/12/11 06:10:35;;;;;;;;;;;2.90;99.90;;;;;;4951658;28;19933;-75
2022/12/11 06:13:02;;;;;;;;;;;2.90;99.90;;;;;;4958975;28;19929;-75
2022/12/11 06:15:29;;;;;;;;;;;2.90;99.90;;;;;;4973820;28;20368;-76
2022/12/11 06:17:55;;;;;;;;;;;2.90;99.90;;;;;;4967672;28;20340;-77
2022/12/11 06:20:22;;;;;;;;;;;2.90;99.90;;;;;;4985563;28;19930;-75
2022/12/11 06:22:49;;;;;;;;;;;2.90;99.90;;;;;;4972309;28;20288;-74
2022/12/11 06:25:17;;;;;;;;;;;2.90;99.90;;;;;;4973075;28;20411;-75
2022/12/11 06:27:45;;;;;;;;;;;2.80;99.90;;;;;;4972401;28;19934;-75
2022/12/11 06:30:12;;;;;;;;;;;2.80;99.90;;;;;;4973717;28;20383;-74
2022/12/11 06:32:39;;;;;;;;;;;2.90;99.90;;;;;;4964236;28;19926;-75
2022/12/11 06:35:06;;;;;;;;;;;2.40;99.90;;;;;;4962248;28;20450;-75
2022/12/11 06:37:33;;;;;;;;;;;;;;;;;;4958613;28;19966;-75
2022/12/11 06:40:00;;;;;;;;;;;2.90;99.90;;;;;;4956342;28;19977;-76
2022/12/11 06:42:29;;;;;;;;;;;2.90;99.90;;;;;;4957602;28;20023;-77
2022/12/11 06:44:58;;;;;;;;;;;2.90;99.90;;;;;;4956363;28;19929;-75
2022/12/11 06:47:26;;;;;;;;;;;2.90;99.90;;;;;;4962557;28;19930;-76
2022/12/11 06:49:53;;;;;;;;;;;2.90;99.90;;;;;;4969349;28;20392;-76
2022/12/11 06:52:20;;;;;;;;;;;2.80;99.90;;;;;;4958912;28;20016;-76
2022/12/11 06:54:47;;;;;;;;;;;2.90;99.90;;;;;;4960752;28;19929;-75
2022/12/11 06:57:14;;;;;;;;;;;2.90;99.90;;;;;;4967973;28;19938;-77
2022/12/11 06:59:41;;;;;;;;;;;2.90;99.90;;;;;;4957149;28;19976;-75
2022/12/11 07:02:12;;;;;;;;;;;2.90;99.90;;;;;;4949149;29;19981;-76
2022/12/11 07:04:38;;;;;;;;;;;2.90;99.90;;;;;;4970856;28;19941;-78
2022/12/11 07:07:05;;;;;;;;;;;2.90;99.90;;;;;;4973876;28;19938;-76
2022/12/11 07:09:33;;;;;;;;;;;2.90;99.90;;;;;;4955616;28;19980;-75
2022/12/11 07:11:59;;;;;;;;;;;2.90;99.90;;;;;;4970956;28;20411;-76
2022/12/11 07:14:26;;;;;;;;;;;2.90;99.90;;;;;;4964199;28;20333;-76
2022/12/11 07:16:53;;;;;;;;;;;2.80;99.90;;;;;;4967667;28;19930;-76
2022/12/11 07:19:22;;;;;;;;;;;2.80;99.90;;;;;;4966778;28;19963;-77
2022/12/11 07:21:48;;;;;;;;;;;2.90;99.90;;;;;;4971656;28;20285;-77
2022/12/11 07:24:15;;;;;;;;;;;2.90;99.90;;;;;;4957580;28;19926;-76
2022/12/11 07:26:42;;;;;;;;;;;2.90;99.90;;;;;;4954661;28;20470;-77
2022/12/11 07:29:09;;;;;;;;;;;3.00;99.90;;;;;;4961873;28;19937;-77
2022/12/11 07:31:36;;;;;;;;;;;3.00;99.90;;;;;;4955729;28;19977;-77
2022/12/11 07:34:04;;;;;;;;;;;3.00;99.90;;;;;;4960356;28;19937;-76
2022/12/11 07:36:33;;;;;;;;;;;3.00;99.90;;;;;;4963603;28;19941;-77
2022/12/11 07:39:00;;;;;;;;;;;3.00;99.90;;;;;;4945598;28;19926;-77
2022/12/11 07:41:27;;;;;;;;;;;3.00;99.90;;;;;;4959228;28;20359;-77
2022/12/11 07:43:55;;;;;;;;;;;3.00;99.90;;;;;;4975143;28;19927;-77
2022/12/11 07:46:23;;;;;;;;;;;3.00;99.90;;;;;;4972753;28;20416;-77
2022/12/11 07:48:50;;;;;;;;;;;3.00;99.90;;;;;;4970701;28;19930;-77
2022/12/11 07:51:18;;;;;;;;;;;3.00;99.90;;;;;;4955130;28;19942;-78
2022/12/11 07:53:47;;;;;;;;;;;3.00;99.90;;;;;;4939541;28;20363;-77
2022/12/11 07:56:14;;;;;;;;;;;3.00;99.90;;;;;;4980794;28;19930;-78
2022/12/11 07:58:41;;;;;;;;;;;3.00;99.90;;;;;;4955579;28;19925;-77
2022/12/11 08:01:10;;;;;;;;;;;3.00;99.90;;;;;;4956347;28;20017;-77
2022/12/11 08:03:37;;;;;;;;;;;3.00;99.90;;;;;;4957877;28;20552;-76
2022/12/11 08:06:05;;;;;;;;;;;3.00;99.90;;;;;;4959040;28;19937;-77
2022/12/11 08:08:32;;;;;;;;;;;3.00;99.90;;;;;;4952259;28;20338;-76
2022/12/11 08:11:02;;;;;;;;;;;2.90;99.90;;;;;;4979392;28;19996;-77
2022/12/11 08:13:29;;;;;;;;;;;2.90;99.90;;;;;;4974879;28;19929;-75
2022/12/11 08:15:56;;;;;;;;;;;2.90;99.90;;;;;;4951708;28;19926;-73
2022/12/11 08:18:24;;;;;;;;;;;2.90;99.90;;;;;;4961138;28;19997;-77
2022/12/11 08:20:51;;;;;;;;;;;2.90;99.90;;;;;;4950856;28;19977;-77
2022/12/11 08:23:19;;;;;;;;;;;3.00;99.90;;;;;;4973018;28;19938;-76
2022/12/11 08:25:46;;;;;;;;;;;3.00;99.90;;;;;;4978517;28;19989;-76
2022/12/11 08:28:15;;;;;;;;;;;3.00;99.90;;;;;;4963485;28;19927;-77
2022/12/11 08:30:42;;;;;;;;;;;3.00;99.90;;;;;;4973108;28;19937;-77
2022/12/11 08:33:09;;;;;;;;;;;3.00;99.90;;;;;;4954712;28;20032;-78
2022/12/11 08:35:38;;;;;;;;;;;3.00;99.90;;;;;;4955385;28;19985;-78
2022/12/11 08:38:05;;;;;;;;;;;3.00;99.90;;;;;;4970545;28;19953;-78
2022/12/11 08:40:32;;;;;;;;;;;3.00;99.90;;;;;;4952807;28;19982;-79
2022/12/11 08:43:04;;;;;;;;;;;3.00;99.90;;;;;;4955067;28;19937;-77
2022/12/11 08:45:34;;;;;;;;;;;3.00;99.90;;;;;;4958634;28;19934;-77
2022/12/11 08:48:01;;;;;;;;;;;3.10;99.90;;;;;;4974087;28;19926;-77
2022/12/11 08:50:30;;;;;;;;;;;3.10;99.90;;;;;;4957733;28;19937;-77
2022/12/11 08:52:57;;;;;;;;;;;3.20;99.90;;;;;;4955847;28;19921;-77
2022/12/11 08:55:24;;;;;;;;;;;3.20;99.90;;;;;;4957085;28;19926;-78
2022/12/11 08:57:53;;;;;;;;;;;3.20;99.90;;;;;;4961208;28;19930;-78
2022/12/11 09:00:20;;;;;;;;;;;3.20;99.90;;;;;;4956582;28;20362;-79
2022/12/11 09:02:48;;;;;;;;;;;3.30;99.90;;;;;;4969141;28;20384;-78
2022/12/11 09:05:16;;;;;;;;;;;3.30;99.90;;;;;;4972889;28;19936;-84
2022/12/11 09:07:43;;;;;;;;;;;3.30;99.90;;;;;;4968913;28;20020;-79
2022/12/11 09:10:10;;;;;;;;;;;3.30;99.90;;;;;;4976943;28;19926;-79
2022/12/11 09:12:37;;;;;;;;;;;3.40;99.90;;;;;;4957104;28;19984;-80
2022/12/11 09:15:15;;;;;;;;;;;3.40;99.90;;;;;;4982058;28;19926;-79
2022/12/11 09:17:43;;;;;;;;;;;3.40;99.90;;;;;;4955230;28;19930;-78
2022/12/11 09:20:12;;;;;;;;;;;3.40;99.90;;;;;;4969962;28;20303;-79
2022/12/11 09:22:41;;;;;;;;;;;3.50;99.90;;;;;;4962535;28;19992;-78
2022/12/11 09:25:08;;;;;;;;;;;3.40;99.90;;;;;;4955700;28;19930;-77
2022/12/11 09:27:35;;;;;;;;;;;3.50;99.90;;;;;;4953859;28;19930;-78
2022/12/11 09:30:02;;;;;;;;;;;3.40;99.90;;;;;;4954096;28;19934;-77
2022/12/11 09:32:30;;;;;;;;;;;3.50;99.90;;;;;;4954194;28;19961;-78
2022/12/11 09:34:57;;;;;;;;;;;3.40;99.90;;;;;;4966118;28;19932;-79
2022/12/11 09:37:25;;;;;;;;;;;3.50;99.90;;;;;;4974013;28;19934;-77
2022/12/11 09:39:52;;;;;;;;;;;3.50;99.90;;;;;;4973482;28;20407;-78
2022/12/11 09:42:21;;;;;;;;;;;3.40;99.90;;;;;;4974455;28;20024;-79
2022/12/11 09:44:51;;;;;;;;;;;3.40;99.90;;;;;;4969420;28;20387;-78
2022/12/11 09:47:23;;;;;;;;;;;3.50;99.90;;;;;;4973428;28;20020;-78
2022/12/11 09:49:51;;;;;;;;;;;3.50;99.90;;;;;;4960371;28;19930;-78
2022/12/11 09:52:20;;;;;;;;;;;3.60;99.90;;;;;;4954116;28;20094;-78
2022/12/11 09:54:50;;;;;;;;;;;3.60;99.90;;;;;;4971422;28;19954;-77
2022/12/11 09:57:25;;;;;;;;;;;3.70;99.90;;;;;;4954770;28;19926;-77
2022/12/11 10:00:03;;;;;;;;;;;3.70;99.90;;;;;;4984556;28;20028;-77
2022/12/11 10:02:39;;;;;;;;;;;3.70;99.90;;;;;;4973472;28;19926;-77
2022/12/11 10:05:11;;;;;;;;;;;3.80;99.90;;;;;;4954098;28;20462;-78
2022/12/11 10:07:47;;;;;;;;;;;3.90;99.90;;;;;;4953711;28;20012;-80
2022/12/11 10:10:22;;;;;;;;;;;3.90;99.90;;;;;;4974426;28;19934;-77
2022/12/11 10:12:52;;;;;;;;;;;3.90;99.90;;;;;;4938657;28;19928;-76
2022/12/11 10:15:28;;;;;;;;;;;4.00;99.90;;;;;;4964133;28;19927;-78
2022/12/11 10:17:56;;;;;;;;;;;4.00;99.90;;;;;;4968694;28;19972;-77
2022/12/11 10:20:26;;;;;;;;;;;4.00;99.90;;;;;;4975598;28;19937;-77
2022/12/11 10:22:55;;;;;;;;;;;4.00;99.90;;;;;;4981960;28;19930;-77
2022/12/11 10:25:27;;;;;;;;;;;4.00;99.90;;;;;;4981489;28;19937;-78
2022/12/11 10:27:54;;;;;;;;;;;3.90;99.90;;;;;;4980715;28;20021;-79
2022/12/11 10:30:22;;;;;;;;;;;3.90;99.90;;;;;;4960161;28;19953;-78
2022/12/11 10:32:55;;;;;;;;;;;3.90;99.90;;;;;;4973022;28;19926;-78
2022/12/11 10:35:29;;;;;;;;;;;3.90;99.90;;;;;;4957896;28;20028;-77
2022/12/11 10:37:59;;;;;;;;;;;4.00;99.90;;;;;;4967304;28;20674;-79
2022/12/11 10:40:29;;;;;;;;;;;4.10;99.90;;;;;;4965543;28;19929;-77
2022/12/11 10:42:56;;;;;;;;;;;4.10;99.90;;;;;;4959618;28;19929;-77
2022/12/11 10:45:23;;;;;;;;;;;4.20;99.90;;;;;;4957669;28;19930;-78
2022/12/11 10:47:50;;;;;;;;;;;4.30;99.90;;;;;;4947252;28;19934;-78
2022/12/11 10:50:25;;;;;;;;;;;4.30;99.90;;;;;;4952988;28;20410;-77
2022/12/11 10:52:53;;;;;;;;;;;4.40;99.90;;;;;;4954574;28;19926;-78
2022/12/11 10:55:21;;;;;;;;;;;4.50;99.90;;;;;;4955188;28;20009;-77
2022/12/11 10:58:02;;;;;;;;;;;4.60;99.90;;;;;;4965153;28;20443;-77
2022/12/11 11:00:31;;;;;;;;;;;4.60;99.90;;;;;;4974599;28;20021;-77
2022/12/11 11:02:58;;;;;;;;;;;4.60;99.90;;;;;;4979150;28;19926;-77
2022/12/11 11:05:29;;;;;;;;;;;4.60;99.90;;;;;;4964255;28;20343;-77
2022/12/11 11:08:03;;;;;;;;;;;4.60;99.90;;;;;;4978121;28;20490;-78
2022/12/11 11:10:30;;;;;;;;;;;4.60;99.90;;;;;;4958554;28;19930;-77
2022/12/11 11:13:01;;;;;;;;;;;4.60;99.90;;;;;;4964098;28;19930;-77
2022/12/11 11:15:30;;;;;;;;;;;4.60;99.90;;;;;;4957503;28;19933;-76
2022/12/11 11:18:00;;;;;;;;;;;4.60;99.90;;;;;;4963273;28;19926;-78
2022/12/11 11:20:28;;;;;;;;;;;4.60;99.90;;;;;;4982643;28;20419;-78
2022/12/11 11:22:57;;;;;;;;;;;4.50;99.90;;;;;;4974714;28;19930;-79
2022/12/11 11:25:25;;;;;;;;;;;4.50;99.90;;;;;;4973417;28;19980;-78
2022/12/11 11:27:53;;;;;;;;;;;4.50;99.90;;;;;;4978313;28;19936;-79
2022/12/11 11:30:23;;;;;;;;;;;4.50;99.90;;;;;;4976588;28;19925;-79
2022/12/11 11:32:51;;;;;;;;;;;4.50;99.90;;;;;;4956671;28;20391;-77
2022/12/11 11:35:20;;;;;;;;;;;4.60;99.90;;;;;;4967502;28;19926;-78
2022/12/11 11:37:54;;;;;;;;;;;4.60;99.90;;;;;;4953964;28;19978;-78
2022/12/11 11:40:27;;;;;;;;;;;4.60;99.90;;;;;;4975018;28;20018;-78
2022/12/11 11:42:58;;;;;;;;;;;4.70;99.90;;;;;;4960230;28;20810;-80
2022/12/11 11:45:28;;;;;;;;;;;4.70;99.90;;;;;;4979667;28;19935;-78
2022/12/11 11:48:00;;;;;;;;;;;4.90;99.90;;;;;;4987082;28;20033;-79
2022/12/11 11:50:31;;;;;;;;;;;4.90;99.90;;;;;;4981116;28;19930;-79
2022/12/11 11:56:54;;;;;;;;;;;5.00;99.90;;;;;;4973491;28;19953;-78
2022/12/11 11:59:23;;;;;;;;;;;5.10;99.90;;;;;;4977130;28;19988;-78
2022/12/11 12:01:56;;;;;;;;;;;5.10;99.90;;;;;;4958283;28;19933;-78
2022/12/11 12:04:24;;;;;;;;;;;5.10;99.90;;;;;;4959197;28;19930;-78
2022/12/11 12:07:07;;;;;;;;;;;5.00;99.90;;;;;;4970364;28;19930;-78
2022/12/11 12:09:42;;;;;;;;;;;5.00;99.90;;;;;;4963089;28;19997;-79
2022/12/11 12:12:12;;;;;;;;;;;4.90;99.90;;;;;;4977175;28;20008;-77
2022/12/11 12:14:44;;;;;;;;;;;5.00;99.90;;;;;;4959637;28;19972;-76
2022/12/11 12:17:18;;;;;;;;;;;4.90;99.90;;;;;;4966696;28;19980;-78
2022/12/11 12:19:50;;;;;;;;;;;4.90;99.90;;;;;;4980517;28;19962;-77
2022/12/11 12:22:34;;;;;;;;;;;5.40;99.90;;;;;;4971726;28;20442;-78
2022/12/11 12:25:06;;;;;;;;;;;4.90;99.90;;;;;;4953121;28;19940;-78
2022/12/11 12:27:37;;;;;;;;;;;4.90;99.90;;;;;;4976801;28;19957;-79
2022/12/11 12:30:10;;;;;;;;;;;4.90;99.90;;;;;;4964738;28;19957;-80
2022/12/11 12:32:43;;;;;;;;;;;4.90;99.90;;;;;;4990583;28;20679;-80
2022/12/11 12:35:15;;;;;;;;;;;4.90;99.90;;;;;;4982058;28;19926;-79
2022/12/11 12:37:56;;;;;;;;;;;5.10;99.90;;;;;;4961518;28;20084;-79
2022/12/11 12:40:30;;;;;;;;;;;5.10;99.90;;;;;;4985825;28;20015;-80
2022/12/11 12:43:04;;;;;;;;;;;5.20;99.90;;;;;;4969809;28;20333;-79
2022/12/11 12:45:37;;;;;;;;;;;5.30;99.90;;;;;;4961426;28;19937;-79
2022/12/11 12:48:07;;;;;;;;;;;5.30;99.90;;;;;;4959790;28;19921;-80
2022/12/11 12:50:37;;;;;;;;;;;5.40;99.90;;;;;;4967529;28;19925;-80
2022/12/11 12:53:05;;;;;;;;;;;5.40;99.90;;;;;;4975781;28;20336;-77
2022/12/11 12:55:33;;;;;;;;;;;5.40;99.90;;;;;;4975797;28;20589;-79
2022/12/11 12:58:01;;;;;;;;;;;5.40;99.90;;;;;;4964906;28;19940;-79
2022/12/11 13:00:33;;;;;;;;;;;5.40;99.90;;;;;;4979241;28;19989;-78
2022/12/11 13:03:01;;;;;;;;;;;5.40;99.90;;;;;;4965014;28;20425;-79
2022/12/11 13:05:32;;;;;;;;;;;5.40;99.90;;;;;;4969390;28;19961;-78
2022/12/11 13:08:09;;;;;;;;;;;5.40;99.90;;;;;;4979290;28;19933;-79
2022/12/11 13:10:37;;;;;;;;;;;5.40;99.90;;;;;;4978431;28;20025;-79
2022/12/11 13:13:06;;;;;;;;;;;5.30;99.90;;;;;;4966889;28;19926;-79
2022/12/11 13:15:39;;;;;;;;;;;5.30;99.90;;;;;;4978690;28;19926;-80
2022/12/11 13:18:27;;;;;;;;;;;5.20;99.90;;;;;;4971686;28;20008;-80
2022/12/11 13:20:56;;;;;;;;;;;5.20;99.90;;;;;;4972069;28;19961;-80
2022/12/11 13:23:27;;;;;;;;;;;5.10;99.90;;;;;;4971345;28;19930;-78
2022/12/11 13:25:56;;;;;;;;;;;5.00;99.90;;;;;;4959436;28;20017;-79
2022/12/11 13:28:25;;;;;;;;;;;4.90;99.90;;;;;;4972103;28;19930;-78
2022/12/11 13:31:13;;;;;;;;;;;4.90;99.90;;;;;;4968715;28;19940;-78
2022/12/11 13:33:42;;;;;;;;;;;4.80;99.90;;;;;;4976784;28;19927;-80
2022/12/11 13:36:26;;;;;;;;;;;4.80;99.90;;;;;;4983688;28;19925;-79
2022/12/11 13:38:55;;;;;;;;;;;4.80;99.90;;;;;;4960104;28;20037;-78
2022/12/11 13:41:23;;;;;;;;;;;4.90;99.90;;;;;;4959537;28;19942;-78
2022/12/11 13:43:50;;;;;;;;;;;4.80;99.90;;;;;;4978486;28;19926;-80
2022/12/11 13:46:20;;;;;;;;;;;4.80;99.90;;;;;;4977397;28;19965;-78
2022/12/11 13:48:48;;;;;;;;;;;4.80;99.90;;;;;;4987121;28;19941;-79
2022/12/11 13:51:16;;;;;;;;;;;4.70;99.90;;;;;;4967326;28;19933;-78
2022/12/11 13:53:44;;;;;;;;;;;4.70;99.90;;;;;;4972098;28;19940;-77
2022/12/11 13:56:16;;;;;;;;;;;4.70;99.90;;;;;;4965381;28;19926;-79
2022/12/11 13:58:42;;;;;;;;;;;4.70;99.90;;;;;;4964057;28;19930;-79
2022/12/11 14:01:12;;;;;;;;;;;4.60;99.90;;;;;;4959779;28;19926;-79
2022/12/11 14:03:40;;;;;;;;;;;4.60;99.90;;;;;;4980916;28;19930;-78
2022/12/11 14:06:07;;;;;;;;;;;;;;;;;;4977233;28;19934;-78
2022/12/11 14:08:36;;;;;;;;;;;4.60;99.90;;;;;;4974582;28;20001;-78
2022/12/11 14:11:05;;;;;;;;;;;4.50;99.90;;;;;;4966811;28;19937;-79
2022/12/11 14:13:33;;;;;;;;;;;4.50;99.90;;;;;;4959659;28;19981;-80
2022/12/11 14:16:01;;;;;;;;;;;4.50;99.90;;;;;;4958125;28;19933;-78
2022/12/11 14:18:29;;;;;;;;;;;4.40;99.90;;;;;;4956073;28;19974;-78
2022/12/11 14:20:57;;;;;;;;;;;4.40;99.90;;;;;;4953753;28;19937;-79
2022/12/11 14:23:25;;;;;;;;;;;4.40;99.90;;;;;;4950932;28;20352;-79
2022/12/11 14:25:54;;;;;;;;;;;4.30;99.90;;;;;;4954359;28;20376;-79
2022/12/11 14:28:26;;;;;;;;;;;4.30;99.90;;;;;;4962867;28;19969;-79
2022/12/11 14:30:54;;;;;;;;;;;4.30;99.90;;;;;;4953367;28;19930;-79
2022/12/11 14:33:23;;;;;;;;;;;4.20;99.90;;;;;;4983490;28;19956;-78
2022/12/11 14:35:50;;;;;;;;;;;4.20;99.90;;;;;;4972446;28;20351;-76
2022/12/11 14:38:19;;;;;;;;;;;4.20;99.90;;;;;;4975328;28;19957;-79
2022/12/11 14:40:50;;;;;;;;;;;4.20;99.90;;;;;;4978911;28;19929;-79
2022/12/11 14:43:22;;;;;;;;;;;4.10;99.90;;;;;;4974675;28;20391;-80
2022/12/11 14:45:54;;;;;;;;;;;4.10;99.90;;;;;;4951556;28;19930;-79
2022/12/11 14:48:23;;;;;;;;;;;4.10;99.90;;;;;;4976473;28;19937;-79
2022/12/11 14:50:52;;;;;;;;;;;4.00;99.90;;;;;;4958767;28;19930;-78
2022/12/11 14:53:25;;;;;;;;;;;4.00;99.90;;;;;;4957597;28;19926;-77
2022/12/11 14:55:52;;;;;;;;;;;4.00;99.90;;;;;;4938317;29;20012;-78
2022/12/11 14:58:22;;;;;;;;;;;3.90;99.90;;;;;;4972190;28;19933;-77